sensor_id;sensor_type;location;lat;lon;timestamp;P1;durP1;ratioP1;P2;durP2;ratioP2
63016;SDS011;50274;45.640;11.756;2024-03-02T00:02:19;9.03;;;2.00;;
63016;SDS011;50274;45.640;11.756;2024-03-02T00:04:45;11.68;;;2.15;;
63016;SDS011;50274;45.640;11.756;2024-03-02T00:07:11;13.70;;;2.23;;
63016;SDS011;50274;45.640;11.756;2024-03-02T00:09:40;10.95;;;2.30;;
63016;SDS011;50274;45.640;11.756;2024-03-02T00:12:06;10.60;;;2.25;;
63016;SDS011;50274;45.640;11.756;2024-03-02T00:14:32;9.98;;;2.30;;
63016;SDS011;50274;45.640;11.756;2024-03-02T00:16:58;12.37;;;2.83;;
63016;SDS011;50274;45.640;11.756;2024-03-02T00:19:24;15.30;;;2.65;;
63016;SDS011;50274;45.640;11.756;2024-03-02T00:21:50;10.32;;;2.40;;
63016;SDS011;50274;45.640;11.756;2024-03-02T00:24:29;11.37;;;2.27;;
63016;SDS011;50274;45.640;11.756;2024-03-02T00:26:58;14.60;;;2.42;;
63016;SDS011;50274;45.640;11.756;2024-03-02T00:29:24;10.40;;;2.03;;
63016;SDS011;50274;45.640;11.756;2024-03-02T00:31:50;7.65;;;1.88;;
63016;SDS011;50274;45.640;11.756;2024-03-02T00:34:17;10.40;;;2.10;;
63016;SDS011;50274;45.640;11.756;2024-03-02T00:36:42;10.48;;;2.10;;
63016;SDS011;50274;45.640;11.756;2024-03-02T00:39:09;10.73;;;2.15;;
63016;SDS011;50274;45.640;11.756;2024-03-02T00:41:38;9.02;;;2.60;;
63016;SDS011;50274;45.640;11.756;2024-03-02T00:44:07;7.93;;;2.40;;
63016;SDS011;50274;45.640;11.756;2024-03-02T00:46:40;10.53;;;2.10;;
63016;SDS011;50274;45.640;11.756;2024-03-02T00:51:37;7.28;;;1.92;;
63016;SDS011;50274;45.640;11.756;2024-03-02T00:54:05;7.72;;;2.30;;
63016;SDS011;50274;45.640;11.756;2024-03-02T00:56:33;11.80;;;2.20;;
63016;SDS011;50274;45.640;11.756;2024-03-02T00:59:00;10.67;;;2.20;;
63016;SDS011;50274;45.640;11.756;2024-03-02T01:01:26;8.75;;;2.15;;
63016;SDS011;50274;45.640;11.756;2024-03-02T01:03:52;12.70;;;2.63;;
63016;SDS011;50274;45.640;11.756;2024-03-02T01:06:18;9.55;;;2.58;;
63016;SDS011;50274;45.640;11.756;2024-03-02T01:08:44;11.15;;;2.03;;
63016;SDS011;50274;45.640;11.756;2024-03-02T01:11:11;7.03;;;1.97;;
63016;SDS011;50274;45.640;11.756;2024-03-02T01:13:37;12.82;;;2.22;;
63016;SDS011;50274;45.640;11.756;2024-03-02T01:16:03;8.65;;;2.05;;
63016;SDS011;50274;45.640;11.756;2024-03-02T01:18:29;9.02;;;1.95;;
63016;SDS011;50274;45.640;11.756;2024-03-02T01:20:55;8.70;;;1.77;;
63016;SDS011;50274;45.640;11.756;2024-03-02T01:23:24;9.57;;;2.05;;
63016;SDS011;50274;45.640;11.756;2024-03-02T01:25:51;6.90;;;1.77;;
63016;SDS011;50274;45.640;11.756;2024-03-02T01:28:17;7.63;;;1.58;;
63016;SDS011;50274;45.640;11.756;2024-03-02T01:30:44;5.80;;;1.63;;
63016;SDS011;50274;45.640;11.756;2024-03-02T01:33:10;9.77;;;1.83;;
63016;SDS011;50274;45.640;11.756;2024-03-02T01:35:36;9.18;;;1.65;;
63016;SDS011;50274;45.640;11.756;2024-03-02T01:38:02;8.35;;;1.67;;
63016;SDS011;50274;45.640;11.756;2024-03-02T01:40:28;7.85;;;1.67;;
63016;SDS011;50274;45.640;11.756;2024-03-02T01:42:54;7.03;;;1.70;;
63016;SDS011;50274;45.640;11.756;2024-03-02T01:45:23;11.05;;;2.05;;
63016;SDS011;50274;45.640;11.756;2024-03-02T01:47:49;12.75;;;1.95;;
63016;SDS011;50274;45.640;11.756;2024-03-02T01:50:15;11.93;;;1.92;;
63016;SDS011;50274;45.640;11.756;2024-03-02T01:52:49;10.75;;;2.03;;
63016;SDS011;50274;45.640;11.756;2024-03-02T01:55:15;8.27;;;2.10;;
63016;SDS011;50274;45.640;11.756;2024-03-02T01:57:41;7.72;;;1.50;;
63016;SDS011;50274;45.640;11.756;2024-03-02T02:00:08;11.07;;;1.75;;
63016;SDS011;50274;45.640;11.756;2024-03-02T02:02:34;9.37;;;1.47;;
63016;SDS011;50274;45.640;11.756;2024-03-02T02:05:00;8.80;;;1.60;;
63016;SDS011;50274;45.640;11.756;2024-03-02T02:07:26;11.00;;;1.77;;
63016;SDS011;50274;45.640;11.756;2024-03-02T02:09:52;11.10;;;2.13;;
63016;SDS011;50274;45.640;11.756;2024-03-02T02:12:18;9.13;;;2.00;;
63016;SDS011;50274;45.640;11.756;2024-03-02T02:14:47;7.50;;;2.20;;
63016;SDS011;50274;45.640;11.756;2024-03-02T02:17:16;8.67;;;1.80;;
63016;SDS011;50274;45.640;11.756;2024-03-02T02:19:42;11.63;;;1.75;;
63016;SDS011;50274;45.640;11.756;2024-03-02T02:22:08;8.38;;;1.88;;
63016;SDS011;50274;45.640;11.756;2024-03-02T02:24:40;7.57;;;1.55;;
63016;SDS011;50274;45.640;11.756;2024-03-02T02:27:07;5.67;;;1.37;;
63016;SDS011;50274;45.640;11.756;2024-03-02T02:29:33;11.00;;;1.60;;
63016;SDS011;50274;45.640;11.756;2024-03-02T02:31:59;8.25;;;1.40;;
63016;SDS011;50274;45.640;11.756;2024-03-02T02:34:25;8.45;;;1.80;;
63016;SDS011;50274;45.640;11.756;2024-03-02T02:36:51;9.87;;;1.40;;
63016;SDS011;50274;45.640;11.756;2024-03-02T02:39:18;10.35;;;1.67;;
63016;SDS011;50274;45.640;11.756;2024-03-02T02:41:46;6.95;;;1.45;;
63016;SDS011;50274;45.640;11.756;2024-03-02T02:44:12;9.32;;;1.88;;
63016;SDS011;50274;45.640;11.756;2024-03-02T02:46:41;7.63;;;1.50;;
63016;SDS011;50274;45.640;11.756;2024-03-02T02:49:06;8.32;;;1.50;;
63016;SDS011;50274;45.640;11.756;2024-03-02T02:51:33;10.13;;;1.75;;
63016;SDS011;50274;45.640;11.756;2024-03-02T02:53:58;7.85;;;1.60;;
63016;SDS011;50274;45.640;11.756;2024-03-02T02:56:24;8.20;;;1.43;;
63016;SDS011;50274;45.640;11.756;2024-03-02T02:58:50;9.98;;;2.10;;
63016;SDS011;50274;45.640;11.756;2024-03-02T03:01:16;7.88;;;1.35;;
63016;SDS011;50274;45.640;11.756;2024-03-02T03:03:43;14.23;;;1.53;;
63016;SDS011;50274;45.640;11.756;2024-03-02T03:06:09;7.05;;;1.52;;
63016;SDS011;50274;45.640;11.756;2024-03-02T03:08:36;7.47;;;1.63;;
63016;SDS011;50274;45.640;11.756;2024-03-02T03:11:02;11.68;;;1.60;;
63016;SDS011;50274;45.640;11.756;2024-03-02T03:13:28;5.65;;;1.50;;
63016;SDS011;50274;45.640;11.756;2024-03-02T03:15:54;8.70;;;1.70;;
63016;SDS011;50274;45.640;11.756;2024-03-02T03:18:19;9.15;;;1.85;;
63016;SDS011;50274;45.640;11.756;2024-03-02T03:20:45;10.67;;;2.30;;
63016;SDS011;50274;45.640;11.756;2024-03-02T03:23:11;9.75;;;2.00;;
63016;SDS011;50274;45.640;11.756;2024-03-02T03:25:40;8.82;;;1.63;;
63016;SDS011;50274;45.640;11.756;2024-03-02T03:28:07;13.55;;;2.15;;
63016;SDS011;50274;45.640;11.756;2024-03-02T03:30:36;9.97;;;2.13;;
63016;SDS011;50274;45.640;11.756;2024-03-02T03:33:03;8.05;;;1.52;;
63016;SDS011;50274;45.640;11.756;2024-03-02T03:35:29;6.63;;;1.33;;
63016;SDS011;50274;45.640;11.756;2024-03-02T03:37:55;8.57;;;1.75;;
63016;SDS011;50274;45.640;11.756;2024-03-02T03:40:21;6.97;;;1.47;;
63016;SDS011;50274;45.640;11.756;2024-03-02T03:42:46;8.57;;;1.45;;
63016;SDS011;50274;45.640;11.756;2024-03-02T03:45:13;9.35;;;1.70;;
63016;SDS011;50274;45.640;11.756;2024-03-02T03:47:40;10.57;;;1.60;;
63016;SDS011;50274;45.640;11.756;2024-03-02T03:50:06;10.48;;;1.55;;
63016;SDS011;50274;45.640;11.756;2024-03-02T03:52:32;13.43;;;3.55;;
63016;SDS011;50274;45.640;11.756;2024-03-02T03:54:58;11.23;;;1.75;;
63016;SDS011;50274;45.640;11.756;2024-03-02T03:57:25;8.63;;;1.77;;
63016;SDS011;50274;45.640;11.756;2024-03-02T03:59:51;9.55;;;1.63;;
63016;SDS011;50274;45.640;11.756;2024-03-02T04:02:18;11.07;;;1.80;;
63016;SDS011;50274;45.640;11.756;2024-03-02T04:04:43;10.70;;;1.60;;
63016;SDS011;50274;45.640;11.756;2024-03-02T04:07:09;6.13;;;1.50;;
63016;SDS011;50274;45.640;11.756;2024-03-02T04:09:35;9.93;;;1.52;;
63016;SDS011;50274;45.640;11.756;2024-03-02T04:12:01;9.73;;;1.40;;
63016;SDS011;50274;45.640;11.756;2024-03-02T04:14:27;6.82;;;1.52;;
63016;SDS011;50274;45.640;11.756;2024-03-02T04:16:52;7.47;;;1.52;;
63016;SDS011;50274;45.640;11.756;2024-03-02T04:19:18;6.00;;;1.60;;
63016;SDS011;50274;45.640;11.756;2024-03-02T04:21:44;11.98;;;1.80;;
63016;SDS011;50274;45.640;11.756;2024-03-02T04:24:10;5.70;;;1.57;;
63016;SDS011;50274;45.640;11.756;2024-03-02T04:26:36;9.13;;;1.60;;
63016;SDS011;50274;45.640;11.756;2024-03-02T04:29:02;9.93;;;1.90;;
63016;SDS011;50274;45.640;11.756;2024-03-02T04:31:27;11.43;;;1.90;;
63016;SDS011;50274;45.640;11.756;2024-03-02T04:33:53;8.88;;;2.15;;
63016;SDS011;50274;45.640;11.756;2024-03-02T04:36:19;10.52;;;1.85;;
63016;SDS011;50274;45.640;11.756;2024-03-02T04:38:46;7.13;;;2.10;;
63016;SDS011;50274;45.640;11.756;2024-03-02T04:41:12;11.27;;;2.20;;
63016;SDS011;50274;45.640;11.756;2024-03-02T04:43:38;6.93;;;1.73;;
63016;SDS011;50274;45.640;11.756;2024-03-02T04:46:04;9.25;;;1.88;;
63016;SDS011;50274;45.640;11.756;2024-03-02T04:48:32;8.55;;;1.75;;
63016;SDS011;50274;45.640;11.756;2024-03-02T04:50:58;5.30;;;1.50;;
63016;SDS011;50274;45.640;11.756;2024-03-02T04:53:23;8.55;;;1.70;;
63016;SDS011;50274;45.640;11.756;2024-03-02T04:55:50;10.38;;;2.30;;
63016;SDS011;50274;45.640;11.756;2024-03-02T04:58:34;9.75;;;1.85;;
63016;SDS011;50274;45.640;11.756;2024-03-02T05:01:00;7.07;;;2.03;;
63016;SDS011;50274;45.640;11.756;2024-03-02T05:03:26;5.97;;;1.67;;
63016;SDS011;50274;45.640;11.756;2024-03-02T05:05:52;7.70;;;1.87;;
63016;SDS011;50274;45.640;11.756;2024-03-02T05:08:17;6.97;;;2.23;;
63016;SDS011;50274;45.640;11.756;2024-03-02T05:10:43;8.10;;;1.83;;
63016;SDS011;50274;45.640;11.756;2024-03-02T05:13:09;6.23;;;1.80;;
63016;SDS011;50274;45.640;11.756;2024-03-02T05:15:35;11.80;;;1.90;;
63016;SDS011;50274;45.640;11.756;2024-03-02T05:18:01;9.52;;;1.92;;
63016;SDS011;50274;45.640;11.756;2024-03-02T05:20:30;9.17;;;1.60;;
63016;SDS011;50274;45.640;11.756;2024-03-02T05:22:56;6.47;;;1.73;;
63016;SDS011;50274;45.640;11.756;2024-03-02T05:25:21;9.88;;;1.63;;
63016;SDS011;50274;45.640;11.756;2024-03-02T05:27:47;8.37;;;1.63;;
63016;SDS011;50274;45.640;11.756;2024-03-02T05:30:13;7.03;;;1.70;;
63016;SDS011;50274;45.640;11.756;2024-03-02T05:32:39;5.70;;;1.80;;
63016;SDS011;50274;45.640;11.756;2024-03-02T05:35:05;8.43;;;1.83;;
63016;SDS011;50274;45.640;11.756;2024-03-02T05:37:33;6.70;;;1.60;;
63016;SDS011;50274;45.640;11.756;2024-03-02T05:39:59;5.25;;;1.13;;
63016;SDS011;50274;45.640;11.756;2024-03-02T05:42:24;8.43;;;1.60;;
63016;SDS011;50274;45.640;11.756;2024-03-02T05:44:50;8.60;;;1.60;;
63016;SDS011;50274;45.640;11.756;2024-03-02T05:47:16;7.07;;;1.47;;
63016;SDS011;50274;45.640;11.756;2024-03-02T05:49:42;6.93;;;1.88;;
63016;SDS011;50274;45.640;11.756;2024-03-02T05:52:08;7.75;;;1.65;;
63016;SDS011;50274;45.640;11.756;2024-03-02T05:54:34;8.40;;;1.73;;
63016;SDS011;50274;45.640;11.756;2024-03-02T05:57:00;7.05;;;1.55;;
63016;SDS011;50274;45.640;11.756;2024-03-02T05:59:41;4.50;;;1.50;;
63016;SDS011;50274;45.640;11.756;2024-03-02T06:02:08;7.10;;;1.90;;
63016;SDS011;50274;45.640;11.756;2024-03-02T06:04:34;5.80;;;1.95;;
63016;SDS011;50274;45.640;11.756;2024-03-02T06:07:00;7.65;;;1.92;;
63016;SDS011;50274;45.640;11.756;2024-03-02T06:09:26;6.50;;;2.13;;
63016;SDS011;50274;45.640;11.756;2024-03-02T06:11:51;12.70;;;2.92;;
63016;SDS011;50274;45.640;11.756;2024-03-02T06:14:17;8.77;;;2.20;;
63016;SDS011;50274;45.640;11.756;2024-03-02T06:16:43;7.03;;;1.60;;
63016;SDS011;50274;45.640;11.756;2024-03-02T06:19:09;7.10;;;1.60;;
63016;SDS011;50274;45.640;11.756;2024-03-02T06:21:35;7.33;;;1.93;;
63016;SDS011;50274;45.640;11.756;2024-03-02T06:24:00;8.32;;;1.65;;
63016;SDS011;50274;45.640;11.756;2024-03-02T06:26:26;9.63;;;2.10;;
63016;SDS011;50274;45.640;11.756;2024-03-02T06:28:54;6.93;;;1.90;;
63016;SDS011;50274;45.640;11.756;2024-03-02T06:31:19;11.50;;;1.85;;
63016;SDS011;50274;45.640;11.756;2024-03-02T06:33:45;8.38;;;1.80;;
63016;SDS011;50274;45.640;11.756;2024-03-02T06:36:11;9.03;;;1.50;;
63016;SDS011;50274;45.640;11.756;2024-03-02T06:38:37;7.30;;;1.85;;
63016;SDS011;50274;45.640;11.756;2024-03-02T06:41:05;12.38;;;1.80;;
63016;SDS011;50274;45.640;11.756;2024-03-02T06:43:31;7.17;;;1.70;;
63016;SDS011;50274;45.640;11.756;2024-03-02T06:45:57;9.38;;;2.03;;
63016;SDS011;50274;45.640;11.756;2024-03-02T06:48:23;7.30;;;2.10;;
63016;SDS011;50274;45.640;11.756;2024-03-02T06:50:49;8.83;;;2.00;;
63016;SDS011;50274;45.640;11.756;2024-03-02T06:53:17;8.63;;;2.10;;
63016;SDS011;50274;45.640;11.756;2024-03-02T06:55:43;9.38;;;2.08;;
63016;SDS011;50274;45.640;11.756;2024-03-02T06:58:12;8.15;;;2.45;;
63016;SDS011;50274;45.640;11.756;2024-03-02T07:00:40;7.73;;;2.47;;
63016;SDS011;50274;45.640;11.756;2024-03-02T07:03:06;7.63;;;2.33;;
63016;SDS011;50274;45.640;11.756;2024-03-02T07:05:32;9.70;;;2.78;;
63016;SDS011;50274;45.640;11.756;2024-03-02T07:07:58;6.73;;;2.40;;
63016;SDS011;50274;45.640;11.756;2024-03-02T07:10:24;8.10;;;1.98;;
63016;SDS011;50274;45.640;11.756;2024-03-02T07:12:50;8.32;;;2.60;;
63016;SDS011;50274;45.640;11.756;2024-03-02T07:15:16;9.47;;;2.73;;
63016;SDS011;50274;45.640;11.756;2024-03-02T07:18:00;9.55;;;2.38;;
63016;SDS011;50274;45.640;11.756;2024-03-02T07:20:26;6.15;;;2.20;;
63016;SDS011;50274;45.640;11.756;2024-03-02T07:22:52;6.20;;;2.17;;
63016;SDS011;50274;45.640;11.756;2024-03-02T07:25:18;8.40;;;2.50;;
63016;SDS011;50274;45.640;11.756;2024-03-02T07:27:44;13.23;;;2.13;;
63016;SDS011;50274;45.640;11.756;2024-03-02T07:30:13;7.22;;;2.22;;
63016;SDS011;50274;45.640;11.756;2024-03-02T07:32:41;7.43;;;2.27;;
63016;SDS011;50274;45.640;11.756;2024-03-02T07:35:11;9.10;;;2.75;;
63016;SDS011;50274;45.640;11.756;2024-03-02T07:37:41;10.60;;;2.90;;
63016;SDS011;50274;45.640;11.756;2024-03-02T07:40:07;11.88;;;2.42;;
63016;SDS011;50274;45.640;11.756;2024-03-02T07:42:38;7.43;;;2.17;;
63016;SDS011;50274;45.640;11.756;2024-03-02T07:45:04;8.97;;;2.60;;
63016;SDS011;50274;45.640;11.756;2024-03-02T07:47:31;7.22;;;2.40;;
63016;SDS011;50274;45.640;11.756;2024-03-02T07:50:00;7.80;;;2.10;;
63016;SDS011;50274;45.640;11.756;2024-03-02T07:52:26;7.72;;;2.42;;
63016;SDS011;50274;45.640;11.756;2024-03-02T07:54:52;8.20;;;2.57;;
63016;SDS011;50274;45.640;11.756;2024-03-02T07:57:17;10.70;;;2.10;;
63016;SDS011;50274;45.640;11.756;2024-03-02T07:59:43;9.13;;;2.63;;
63016;SDS011;50274;45.640;11.756;2024-03-02T08:02:09;11.97;;;2.37;;
63016;SDS011;50274;45.640;11.756;2024-03-02T08:04:35;6.38;;;2.25;;
63016;SDS011;50274;45.640;11.756;2024-03-02T08:07:02;8.70;;;2.70;;
63016;SDS011;50274;45.640;11.756;2024-03-02T08:09:28;9.77;;;2.72;;
63016;SDS011;50274;45.640;11.756;2024-03-02T08:11:54;9.30;;;3.37;;
63016;SDS011;50274;45.640;11.756;2024-03-02T08:14:21;7.38;;;2.03;;
63016;SDS011;50274;45.640;11.756;2024-03-02T08:16:47;9.60;;;2.80;;
63016;SDS011;50274;45.640;11.756;2024-03-02T08:19:13;10.05;;;2.30;;
63016;SDS011;50274;45.640;11.756;2024-03-02T08:21:39;9.33;;;2.57;;
63016;SDS011;50274;45.640;11.756;2024-03-02T08:24:05;10.05;;;2.55;;
63016;SDS011;50274;45.640;11.756;2024-03-02T08:26:31;6.85;;;2.38;;
63016;SDS011;50274;45.640;11.756;2024-03-02T08:28:58;7.73;;;2.30;;
63016;SDS011;50274;45.640;11.756;2024-03-02T08:31:24;8.85;;;3.00;;
63016;SDS011;50274;45.640;11.756;2024-03-02T08:33:50;12.13;;;2.95;;
63016;SDS011;50274;45.640;11.756;2024-03-02T08:36:16;11.17;;;2.73;;
63016;SDS011;50274;45.640;11.756;2024-03-02T08:38:42;11.65;;;2.90;;
63016;SDS011;50274;45.640;11.756;2024-03-02T08:41:09;8.68;;;2.78;;
63016;SDS011;50274;45.640;11.756;2024-03-02T08:43:35;7.22;;;2.67;;
63016;SDS011;50274;45.640;11.756;2024-03-02T08:46:01;9.97;;;2.83;;
63016;SDS011;50274;45.640;11.756;2024-03-02T08:48:26;9.07;;;2.50;;
63016;SDS011;50274;45.640;11.756;2024-03-02T08:50:52;8.00;;;2.45;;
63016;SDS011;50274;45.640;11.756;2024-03-02T08:53:18;8.43;;;2.60;;
63016;SDS011;50274;45.640;11.756;2024-03-02T08:55:47;6.35;;;2.38;;
63016;SDS011;50274;45.640;11.756;2024-03-02T08:58:13;7.60;;;2.20;;
63016;SDS011;50274;45.640;11.756;2024-03-02T09:00:39;7.90;;;2.33;;
63016;SDS011;50274;45.640;11.756;2024-03-02T09:03:05;6.90;;;2.42;;
63016;SDS011;50274;45.640;11.756;2024-03-02T09:05:31;6.65;;;2.00;;
63016;SDS011;50274;45.640;11.756;2024-03-02T09:07:56;8.57;;;2.47;;
63016;SDS011;50274;45.640;11.756;2024-03-02T09:10:22;10.82;;;2.47;;
63016;SDS011;50274;45.640;11.756;2024-03-02T09:12:48;7.33;;;2.83;;
63016;SDS011;50274;45.640;11.756;2024-03-02T09:15:14;8.07;;;2.22;;
63016;SDS011;50274;45.640;11.756;2024-03-02T09:17:40;7.75;;;2.47;;
63016;SDS011;50274;45.640;11.756;2024-03-02T09:20:06;7.33;;;2.60;;
63016;SDS011;50274;45.640;11.756;2024-03-02T09:22:32;8.60;;;2.47;;
63016;SDS011;50274;45.640;11.756;2024-03-02T09:24:58;6.95;;;2.33;;
63016;SDS011;50274;45.640;11.756;2024-03-02T09:27:24;7.78;;;2.08;;
63016;SDS011;50274;45.640;11.756;2024-03-02T09:29:49;8.67;;;2.40;;
63016;SDS011;50274;45.640;11.756;2024-03-02T09:32:15;9.70;;;2.17;;
63016;SDS011;50274;45.640;11.756;2024-03-02T09:34:41;6.67;;;2.13;;
63016;SDS011;50274;45.640;11.756;2024-03-02T09:37:08;5.95;;;1.75;;
63016;SDS011;50274;45.640;11.756;2024-03-02T09:39:34;6.63;;;1.98;;
63016;SDS011;50274;45.640;11.756;2024-03-02T09:42:00;8.20;;;2.43;;
63016;SDS011;50274;45.640;11.756;2024-03-02T09:44:26;6.83;;;2.00;;
63016;SDS011;50274;45.640;11.756;2024-03-02T09:46:52;7.57;;;2.13;;
63016;SDS011;50274;45.640;11.756;2024-03-02T09:49:17;7.28;;;2.00;;
63016;SDS011;50274;45.640;11.756;2024-03-02T09:51:47;6.87;;;2.10;;
63016;SDS011;50274;45.640;11.756;2024-03-02T09:54:13;8.18;;;2.22;;
63016;SDS011;50274;45.640;11.756;2024-03-02T09:56:41;7.35;;;2.22;;
63016;SDS011;50274;45.640;11.756;2024-03-02T09:59:07;10.68;;;2.25;;
63016;SDS011;50274;45.640;11.756;2024-03-02T10:01:33;6.83;;;3.03;;
63016;SDS011;50274;45.640;11.756;2024-03-02T10:03:59;8.35;;;2.70;;
63016;SDS011;50274;45.640;11.756;2024-03-02T10:06:26;6.65;;;2.17;;
63016;SDS011;50274;45.640;11.756;2024-03-02T10:08:53;6.93;;;2.58;;
63016;SDS011;50274;45.640;11.756;2024-03-02T10:11:27;7.77;;;2.40;;
63016;SDS011;50274;45.640;11.756;2024-03-02T10:14:08;7.78;;;2.53;;
63016;SDS011;50274;45.640;11.756;2024-03-02T10:16:39;8.15;;;2.33;;
63016;SDS011;50274;45.640;11.756;2024-03-02T10:21:43;8.90;;;2.28;;
63016;SDS011;50274;45.640;11.756;2024-03-02T10:24:12;7.40;;;2.17;;
63016;SDS011;50274;45.640;11.756;2024-03-02T10:26:39;5.47;;;2.03;;
63016;SDS011;50274;45.640;11.756;2024-03-02T10:29:05;6.15;;;2.28;;
63016;SDS011;50274;45.640;11.756;2024-03-02T10:31:30;7.37;;;2.10;;
63016;SDS011;50274;45.640;11.756;2024-03-02T10:33:57;5.87;;;2.40;;
63016;SDS011;50274;45.640;11.756;2024-03-02T10:36:24;5.72;;;1.95;;
63016;SDS011;50274;45.640;11.756;2024-03-02T10:38:51;7.28;;;2.20;;
63016;SDS011;50274;45.640;11.756;2024-03-02T10:41:22;9.70;;;2.03;;
63016;SDS011;50274;45.640;11.756;2024-03-02T10:43:52;7.63;;;2.33;;
63016;SDS011;50274;45.640;11.756;2024-03-02T10:46:34;6.57;;;2.17;;
63016;SDS011;50274;45.640;11.756;2024-03-02T10:49:01;11.50;;;2.63;;
63016;SDS011;50274;45.640;11.756;2024-03-02T10:51:29;9.75;;;2.92;;
63016;SDS011;50274;45.640;11.756;2024-03-02T10:54:00;5.65;;;2.65;;
63016;SDS011;50274;45.640;11.756;2024-03-02T10:56:29;6.35;;;2.50;;
63016;SDS011;50274;45.640;11.756;2024-03-02T11:01:58;6.82;;;2.72;;
63016;SDS011;50274;45.640;11.756;2024-03-02T11:04:26;7.72;;;2.88;;
63016;SDS011;50274;45.640;11.756;2024-03-02T11:06:59;8.18;;;3.20;;
63016;SDS011;50274;45.640;11.756;2024-03-02T11:09:32;13.95;;;3.50;;
63016;SDS011;50274;45.640;11.756;2024-03-02T11:14:52;8.65;;;3.00;;
63016;SDS011;50274;45.640;11.756;2024-03-02T11:17:20;9.93;;;3.10;;
63016;SDS011;50274;45.640;11.756;2024-03-02T11:19:48;8.25;;;3.30;;
63016;SDS011;50274;45.640;11.756;2024-03-02T11:22:15;9.23;;;3.95;;
63016;SDS011;50274;45.640;11.756;2024-03-02T11:24:48;10.07;;;3.67;;
63016;SDS011;50274;45.640;11.756;2024-03-02T11:27:15;7.55;;;3.88;;
63016;SDS011;50274;45.640;11.756;2024-03-02T11:33:02;8.95;;;3.42;;
63016;SDS011;50274;45.640;11.756;2024-03-02T11:35:40;10.00;;;3.97;;
63016;SDS011;50274;45.640;11.756;2024-03-02T11:38:08;9.50;;;4.10;;
63016;SDS011;50274;45.640;11.756;2024-03-02T11:40:35;8.07;;;3.30;;
63016;SDS011;50274;45.640;11.756;2024-03-02T11:43:01;7.85;;;3.50;;
63016;SDS011;50274;45.640;11.756;2024-03-02T11:45:27;6.93;;;2.90;;
63016;SDS011;50274;45.640;11.756;2024-03-02T11:47:59;8.73;;;3.10;;
63016;SDS011;50274;45.640;11.756;2024-03-02T11:50:35;9.52;;;3.20;;
63016;SDS011;50274;45.640;11.756;2024-03-02T11:53:05;6.22;;;2.70;;
63016;SDS011;50274;45.640;11.756;2024-03-02T11:55:38;6.35;;;2.53;;
63016;SDS011;50274;45.640;11.756;2024-03-02T11:58:11;7.60;;;2.80;;
63016;SDS011;50274;45.640;11.756;2024-03-02T12:00:37;7.80;;;3.03;;
63016;SDS011;50274;45.640;11.756;2024-03-02T12:03:07;10.18;;;3.08;;
63016;SDS011;50274;45.640;11.756;2024-03-02T12:05:34;7.60;;;2.75;;
63016;SDS011;50274;45.640;11.756;2024-03-02T12:08:01;6.60;;;2.70;;
63016;SDS011;50274;45.640;11.756;2024-03-02T12:10:29;6.50;;;2.97;;
63016;SDS011;50274;45.640;11.756;2024-03-02T12:12:58;10.70;;;3.53;;
63016;SDS011;50274;45.640;11.756;2024-03-02T12:15:33;6.72;;;3.33;;
63016;SDS011;50274;45.640;11.756;2024-03-02T12:18:00;6.78;;;3.30;;
63016;SDS011;50274;45.640;11.756;2024-03-02T12:20:27;6.95;;;3.42;;
63016;SDS011;50274;45.640;11.756;2024-03-02T12:22:55;8.32;;;3.42;;
63016;SDS011;50274;45.640;11.756;2024-03-02T12:25:24;7.30;;;3.57;;
63016;SDS011;50274;45.640;11.756;2024-03-02T12:27:55;10.90;;;3.90;;
63016;SDS011;50274;45.640;11.756;2024-03-02T12:30:22;8.15;;;3.63;;
63016;SDS011;50274;45.640;11.756;2024-03-02T12:32:49;8.75;;;3.53;;
63016;SDS011;50274;45.640;11.756;2024-03-02T12:35:15;8.65;;;3.55;;
63016;SDS011;50274;45.640;11.756;2024-03-02T12:37:46;8.33;;;3.10;;
63016;SDS011;50274;45.640;11.756;2024-03-02T12:40:13;9.85;;;3.38;;
63016;SDS011;50274;45.640;11.756;2024-03-02T12:42:40;6.70;;;3.03;;
63016;SDS011;50274;45.640;11.756;2024-03-02T12:45:09;9.32;;;3.42;;
63016;SDS011;50274;45.640;11.756;2024-03-02T12:47:35;9.80;;;3.42;;
63016;SDS011;50274;45.640;11.756;2024-03-02T12:50:03;6.43;;;3.10;;
63016;SDS011;50274;45.640;11.756;2024-03-02T12:52:29;11.20;;;3.10;;
63016;SDS011;50274;45.640;11.756;2024-03-02T12:54:57;8.82;;;2.60;;
63016;SDS011;50274;45.640;11.756;2024-03-02T12:57:27;7.32;;;2.63;;
63016;SDS011;50274;45.640;11.756;2024-03-02T13:00:01;7.13;;;2.72;;
63016;SDS011;50274;45.640;11.756;2024-03-02T13:02:34;6.10;;;2.70;;
63016;SDS011;50274;45.640;11.756;2024-03-02T13:05:01;6.85;;;2.90;;
63016;SDS011;50274;45.640;11.756;2024-03-02T13:07:28;5.90;;;2.70;;
63016;SDS011;50274;45.640;11.756;2024-03-02T13:09:54;7.18;;;3.10;;
63016;SDS011;50274;45.640;11.756;2024-03-02T13:12:21;8.15;;;3.33;;
63016;SDS011;50274;45.640;11.756;2024-03-02T13:14:53;9.40;;;3.30;;
63016;SDS011;50274;45.640;11.756;2024-03-02T13:17:19;7.93;;;2.92;;
63016;SDS011;50274;45.640;11.756;2024-03-02T13:19:52;8.38;;;2.60;;
63016;SDS011;50274;45.640;11.756;2024-03-02T13:22:22;4.40;;;1.75;;
63016;SDS011;50274;45.640;11.756;2024-03-02T13:24:49;5.30;;;1.60;;
63016;SDS011;50274;45.640;11.756;2024-03-02T13:27:15;5.20;;;1.30;;
63016;SDS011;50274;45.640;11.756;2024-03-02T13:29:41;5.18;;;1.38;;
63016;SDS011;50274;45.640;11.756;2024-03-02T13:32:07;5.03;;;1.42;;
63016;SDS011;50274;45.640;11.756;2024-03-02T13:34:35;8.02;;;1.40;;
63016;SDS011;50274;45.640;11.756;2024-03-02T13:37:02;4.43;;;1.27;;
63016;SDS011;50274;45.640;11.756;2024-03-02T13:39:29;4.40;;;1.27;;
63016;SDS011;50274;45.640;11.756;2024-03-02T13:41:57;5.38;;;1.48;;
63016;SDS011;50274;45.640;11.756;2024-03-02T13:44:29;5.47;;;1.80;;
63016;SDS011;50274;45.640;11.756;2024-03-02T13:46:55;6.60;;;1.77;;
63016;SDS011;50274;45.640;11.756;2024-03-02T13:49:22;6.75;;;1.80;;
63016;SDS011;50274;45.640;11.756;2024-03-02T13:51:48;5.43;;;1.73;;
63016;SDS011;50274;45.640;11.756;2024-03-02T13:54:14;5.65;;;2.00;;
63016;SDS011;50274;45.640;11.756;2024-03-02T13:56:40;4.85;;;2.13;;
63016;SDS011;50274;45.640;11.756;2024-03-02T13:59:06;7.15;;;2.50;;
63016;SDS011;50274;45.640;11.756;2024-03-02T14:01:33;8.77;;;3.30;;
63016;SDS011;50274;45.640;11.756;2024-03-02T14:03:59;6.47;;;2.88;;
63016;SDS011;50274;45.640;11.756;2024-03-02T14:06:25;7.00;;;2.83;;
63016;SDS011;50274;45.640;11.756;2024-03-02T14:08:52;7.78;;;2.92;;
63016;SDS011;50274;45.640;11.756;2024-03-02T14:11:18;9.60;;;3.45;;
63016;SDS011;50274;45.640;11.756;2024-03-02T14:13:44;8.57;;;3.77;;
63016;SDS011;50274;45.640;11.756;2024-03-02T14:16:18;6.38;;;2.70;;
63016;SDS011;50274;45.640;11.756;2024-03-02T14:18:44;5.95;;;2.83;;
63016;SDS011;50274;45.640;11.756;2024-03-02T14:21:10;7.82;;;2.97;;
63016;SDS011;50274;45.640;11.756;2024-03-02T14:23:36;7.10;;;2.80;;
63016;SDS011;50274;45.640;11.756;2024-03-02T14:26:02;6.17;;;3.13;;
63016;SDS011;50274;45.640;11.756;2024-03-02T14:28:28;8.00;;;3.00;;
63016;SDS011;50274;45.640;11.756;2024-03-02T14:30:54;6.47;;;2.88;;
63016;SDS011;50274;45.640;11.756;2024-03-02T14:33:20;7.60;;;3.10;;
63016;SDS011;50274;45.640;11.756;2024-03-02T14:35:46;9.52;;;3.30;;
63016;SDS011;50274;45.640;11.756;2024-03-02T14:38:12;7.22;;;3.35;;
63016;SDS011;50274;45.640;11.756;2024-03-02T14:40:38;7.47;;;3.78;;
63016;SDS011;50274;45.640;11.756;2024-03-02T14:43:04;6.53;;;3.07;;
63016;SDS011;50274;45.640;11.756;2024-03-02T14:45:30;8.10;;;3.30;;